createdAt,value
2019-03-21T00:01:24.853Z,102984.22
2019-03-21T00:04:30.351Z,102986.66
2019-03-21T00:07:35.603Z,102987.26
2019-03-21T00:11:23.995Z,102989.69
2019-03-21T00:14:56.025Z,102987.17
2019-03-21T00:18:10.178Z,102973.91
2019-03-21T00:21:15.287Z,102977.74
2019-03-21T00:24:20.371Z,102975.84
2019-03-21T00:27:25.411Z,102980.75
2019-03-21T00:30:31.632Z,102973.20
2019-03-21T00:33:37.190Z,102972.04
2019-03-21T00:36:42.501Z,102978.98
2019-03-21T00:39:47.639Z,102970.55
2019-03-21T00:42:53.287Z,102960.62
2019-03-21T00:45:58.333Z,102960.42
2019-03-21T00:49:03.333Z,102959.24
2019-03-21T00:52:11.114Z,102963.50
2019-03-21T00:55:17.644Z,102968.70
2019-03-21T00:58:22.634Z,102956.08
2019-03-21T01:01:28.882Z,102946.04
2019-03-21T01:04:35.131Z,102949.70
2019-03-21T01:07:40.076Z,102943.80
2019-03-21T01:10:45.083Z,102953.91
2019-03-21T01:13:49.965Z,102947.27
2019-03-21T01:16:55.227Z,102947.45
2019-03-21T01:20:00.192Z,102947.90
2019-03-21T01:23:05.224Z,102943.41
2019-03-21T01:26:10.278Z,102949.16
2019-03-21T01:29:18.937Z,102953.09
2019-03-21T01:32:23.804Z,102948.60
2019-03-21T01:35:28.785Z,102939.92
2019-03-21T01:38:33.641Z,102939.94
2019-03-21T01:41:57.278Z,102935.59
2019-03-21T01:45:02.230Z,102933.40
2019-03-21T01:48:07.070Z,102927.82
2019-03-21T01:51:11.957Z,102931.78
2019-03-21T01:54:16.782Z,102929.02
2019-03-21T01:57:21.970Z,102921.59
2019-03-21T02:00:29.493Z,102923.02
2019-03-21T02:03:37.355Z,102922.75
2019-03-21T02:06:42.188Z,102915.88
2019-03-21T02:09:47.084Z,102920.19
2019-03-21T02:12:54.097Z,102906.53
2019-03-21T02:15:59.368Z,102903.66
2019-03-21T02:19:04.425Z,102900.11
2019-03-21T02:22:09.216Z,102903.44
2019-03-21T02:25:19.795Z,102890.80
2019-03-21T02:28:24.592Z,102886.83
2019-03-21T02:31:30.537Z,102883.59
2019-03-21T02:34:35.449Z,102879.07
2019-03-21T02:37:40.368Z,102880.80
2019-03-21T02:40:45.452Z,102872.68
2019-03-21T02:43:50.380Z,102869.83
2019-03-21T02:46:55.366Z,102871.45
2019-03-21T02:50:03.602Z,102874.14
2019-03-21T02:53:08.422Z,102871.18
2019-03-21T02:56:15.156Z,102869.94
2019-03-21T02:59:20.154Z,102861.20
2019-03-21T03:02:24.955Z,102855.88
2019-03-21T03:05:31.042Z,102856.63
2019-03-21T03:08:35.898Z,102850.86
2019-03-21T03:11:42.927Z,102850.75
2019-03-21T03:14:47.765Z,102843.81
2019-03-21T03:17:55.930Z,102845.31
2019-03-21T03:21:03.982Z,102842.78
2019-03-21T03:24:09.759Z,102852.17
2019-03-21T03:27:14.675Z,102848.64
2019-03-21T03:30:21.360Z,102854.63
2019-03-21T03:33:26.188Z,102844.09
2019-03-21T03:36:31.030Z,102845.41
2019-03-21T03:39:37.154Z,102846.14
2019-03-21T03:42:42.162Z,102843.89
2019-03-21T03:45:47.099Z,102839.72
2019-03-21T03:48:51.910Z,102843.44
2019-03-21T03:51:59.572Z,102847.08
2019-03-21T03:55:04.622Z,102843.92
2019-03-21T03:58:11.835Z,102836.53
2019-03-21T04:01:16.656Z,102826.33
2019-03-21T04:04:21.792Z,102837.34
2019-03-21T04:07:27.943Z,102836.16
2019-03-21T04:10:35.212Z,102840.69
2019-03-21T04:13:40.129Z,102844.73
2019-03-21T04:16:44.977Z,102845.97
2019-03-21T04:19:49.897Z,102837.59
2019-03-21T04:22:54.847Z,102841.45
2019-03-21T04:26:06.262Z,102836.11
2019-03-21T04:29:11.083Z,102841.38
2019-03-21T04:32:15.893Z,102840.50
2019-03-21T04:35:20.830Z,102836.82
2019-03-21T04:38:25.861Z,102838.31
2019-03-21T04:41:30.708Z,102845.03
2019-03-21T04:44:35.543Z,102847.08
2019-03-21T04:47:40.448Z,102856.33
2019-03-21T04:50:45.412Z,102854.11
2019-03-21T04:53:50.249Z,102860.72
2019-03-21T04:56:55.158Z,102838.92
2019-03-21T05:00:03.647Z,102839.93
2019-03-21T05:03:08.773Z,102848.62
2019-03-21T05:06:13.584Z,102850.53
2019-03-21T05:09:20.198Z,102850.34
2019-03-21T05:12:25.072Z,102853.28
2019-03-21T05:15:32.622Z,102860.41
2019-03-21T05:18:38.799Z,102855.76
2019-03-21T05:21:45.163Z,102855.50
2019-03-21T05:24:50.010Z,102853.59
2019-03-21T05:27:54.947Z,102859.73
2019-03-21T05:31:05.799Z,102854.20
2019-03-21T05:34:10.651Z,102848.13
2019-03-21T05:37:15.571Z,102852.49
2019-03-21T05:40:20.900Z,102843.02
2019-03-21T05:43:35.631Z,102852.89
2019-03-21T05:46:40.550Z,102852.42
2019-03-21T05:49:45.438Z,102849.52
2019-03-21T05:52:50.400Z,102847.08
2019-03-21T05:55:59.410Z,102848.95
2019-03-21T05:59:04.705Z,102862.97
2019-03-21T06:02:09.621Z,102857.34
2019-03-21T06:05:17.270Z,102864.22
2019-03-21T06:08:25.497Z,102862.95
2019-03-21T06:11:30.577Z,102870.32
2019-03-21T06:14:38.983Z,102864.95
2019-03-21T06:17:43.703Z,102862.59
2019-03-21T06:21:09.765Z,102866.59
2019-03-21T06:24:26.729Z,102864.69
2019-03-21T06:27:31.792Z,102883.47
2019-03-21T06:30:36.729Z,102889.83
2019-03-21T06:33:41.679Z,102893.22
2019-03-21T06:36:46.607Z,102893.61
2019-03-21T06:39:51.575Z,102902.89
2019-03-21T06:42:56.488Z,102902.78
2019-03-21T06:46:01.450Z,102909.45
2019-03-21T06:49:06.368Z,102913.59
2019-03-21T06:52:11.223Z,102919.14
2019-03-21T06:55:16.055Z,102910.30
2019-03-21T06:58:20.886Z,102919.41
2019-03-21T07:01:26.134Z,102934.83
2019-03-21T07:04:31.043Z,102931.16
2019-03-21T07:07:37.304Z,102935.98
2019-03-21T07:10:42.212Z,102943.94
2019-03-21T07:13:47.091Z,102944.70
2019-03-21T07:17:00.028Z,102943.80
2019-03-21T07:19:58.684Z,102937.80
2019-03-21T07:23:03.495Z,102933.53
2019-03-21T07:26:08.343Z,102942.52
2019-03-21T07:29:16.024Z,102935.64
2019-03-21T07:32:20.857Z,102938.76
2019-03-21T07:35:25.684Z,102945.77
2019-03-21T07:38:30.500Z,102935.85
2019-03-21T07:41:35.376Z,102942.16
2019-03-21T07:45:01.317Z,102938.09
2019-03-21T07:48:06.269Z,102939.14
2019-03-21T07:51:11.207Z,102943.53
2019-03-21T07:54:19.181Z,102946.36
2019-03-21T07:57:24.104Z,102955.45
2019-03-21T08:00:29.160Z,102961.58
2019-03-21T08:03:34.105Z,102962.08
2019-03-21T08:06:38.974Z,102969.63
2019-03-21T08:10:46.259Z,102973.67
2019-03-21T08:13:52.633Z,102971.11
2019-03-21T08:16:57.553Z,102969.52
2019-03-21T08:20:02.471Z,102974.70
2019-03-21T08:23:07.623Z,102982.64
2019-03-21T08:26:14.412Z,102982.29
2019-03-21T08:29:22.141Z,102970.09
2019-03-21T08:32:28.307Z,102981.73
2019-03-21T08:35:33.258Z,102986.47
2019-03-21T08:38:39.397Z,102984.61
2019-03-21T08:41:44.241Z,102984.25
2019-03-21T08:44:49.111Z,102979.94
2019-03-21T08:47:54.079Z,102983.70
2019-03-21T08:51:07.738Z,102985.84
2019-03-21T08:54:05.911Z,102984.43
2019-03-21T08:57:10.859Z,102988.02
2019-03-21T09:00:18.741Z,102989.42
2019-03-21T09:09:01.352Z,102974.11
2019-03-21T09:12:09.198Z,102971.09
2019-03-21T09:15:17.623Z,102966.55
2019-03-21T09:18:22.555Z,102962.30
2019-03-21T09:21:30.439Z,102957.22
2019-03-21T09:24:38.355Z,102950.31
2019-03-21T09:27:43.177Z,102947.66
2019-03-21T09:30:50.510Z,102947.08
2019-03-21T09:33:57.528Z,102942.69
2019-03-21T09:37:05.410Z,102947.63
2019-03-21T09:40:10.853Z,102947.05
2019-03-21T09:43:17.456Z,102933.52
2019-03-21T09:46:22.504Z,102927.72
2019-03-21T09:49:27.374Z,102944.91
2019-03-21T09:52:32.297Z,102947.70
2019-03-21T09:55:37.130Z,102942.81
2019-03-21T09:58:42.090Z,102950.67
2019-03-21T10:01:47.354Z,102947.16
2019-03-21T10:04:52.292Z,102941.55
2019-03-21T10:07:59.446Z,102946.49
2019-03-21T10:11:03.974Z,102945.34
2019-03-21T10:14:08.891Z,102933.92
2019-03-21T10:17:13.859Z,102919.62
2019-03-21T10:20:18.729Z,102923.13
2019-03-21T10:23:23.610Z,102932.72
2019-03-21T10:26:28.763Z,102941.91
2019-03-21T10:29:33.721Z,102936.47
2019-03-21T10:32:38.573Z,102943.70
2019-03-21T10:35:43.554Z,102951.75
2019-03-21T10:38:48.525Z,102943.53
2019-03-21T10:41:53.443Z,102955.89
2019-03-21T10:44:59.555Z,102959.30
2019-03-21T10:48:04.586Z,102973.98
2019-03-21T10:51:09.502Z,102971.62
2019-03-21T10:54:15.610Z,102961.83
2019-03-21T10:57:20.430Z,102972.04
2019-03-21T11:00:25.234Z,102977.14
2019-03-21T11:03:30.163Z,102976.42
2019-03-21T11:06:35.166Z,102972.44
2019-03-21T11:09:41.262Z,102968.77
2019-03-21T11:12:46.242Z,102965.11
2019-03-21T11:15:51.159Z,102968.52
2019-03-21T11:18:55.974Z,102976.27
2019-03-21T11:22:06.259Z,102976.74
2019-03-21T11:25:07.547Z,102984.52
2019-03-21T11:28:13.169Z,102986.59
2019-03-21T11:31:18.115Z,102978.05
2019-03-21T11:34:22.933Z,102984.17
2019-03-21T11:37:27.857Z,102981.70
2019-03-21T11:40:32.689Z,102968.21
2019-03-21T11:43:37.723Z,102970.02
2019-03-21T11:46:42.570Z,102961.64
2019-03-21T11:49:47.391Z,102974.17
2019-03-21T11:52:53.968Z,102967.85
2019-03-21T11:55:58.816Z,102961.73
2019-03-21T11:59:03.702Z,102967.12
2019-03-21T12:02:08.616Z,102964.98
2019-03-21T12:05:13.696Z,102968.33
2019-03-21T12:08:18.517Z,102970.09
2019-03-21T12:11:23.439Z,102974.16
2019-03-21T12:14:28.252Z,102968.03
2019-03-21T12:17:33.078Z,102972.41
2019-03-21T12:20:37.904Z,102965.16
2019-03-21T12:23:42.720Z,102957.17
2019-03-21T12:26:47.560Z,102959.11
2019-03-21T12:29:52.436Z,102955.84
2019-03-21T12:32:57.435Z,102959.40
2019-03-21T12:36:02.265Z,102953.71
2019-03-21T12:39:09.728Z,102952.20
2019-03-21T12:42:14.551Z,102952.56
2019-03-21T12:45:22.261Z,102955.78
2019-03-21T12:48:28.228Z,102947.33
2019-03-21T12:51:35.008Z,102941.75
2019-03-21T12:54:39.839Z,102944.39
2019-03-21T12:57:44.691Z,102946.55
2019-03-21T13:00:49.520Z,102935.59
2019-03-21T13:03:54.366Z,102940.49
2019-03-21T13:06:59.348Z,102951.70
2019-03-21T13:10:04.948Z,102949.11
2019-03-21T13:13:11.118Z,102960.21
2019-03-21T13:16:16.058Z,102967.20
2019-03-21T13:19:20.888Z,102967.78
2019-03-21T13:22:25.869Z,102957.80
2019-03-21T13:25:33.697Z,102961.91
2019-03-21T13:28:38.716Z,102959.38
2019-03-21T13:31:43.592Z,102946.17
2019-03-21T13:34:48.408Z,102959.94
2019-03-21T13:37:54.060Z,102951.16
2019-03-21T13:40:59.066Z,102948.35
2019-03-21T13:44:04.225Z,102935.86
2019-03-21T13:47:09.191Z,102936.88
2019-03-21T13:50:14.301Z,102932.23
2019-03-21T13:53:19.335Z,102936.17
2019-03-21T13:56:24.503Z,102941.23
2019-03-21T13:59:29.417Z,102944.19
2019-03-21T14:02:34.267Z,102951.69
2019-03-21T14:05:40.353Z,102945.52
2019-03-21T14:08:45.191Z,102952.06
2019-03-21T14:11:52.290Z,102948.13
2019-03-21T14:14:56.849Z,102937.66
2019-03-21T14:18:04.748Z,102932.36
2019-03-21T14:21:10.701Z,102933.98
2019-03-21T14:24:15.517Z,102929.95
2019-03-21T14:27:20.455Z,102925.18
2019-03-21T14:30:25.385Z,102923.37
2019-03-21T14:33:32.353Z,102937.61
2019-03-21T14:36:37.283Z,102940.09
2019-03-21T14:39:42.234Z,102939.17
2019-03-21T14:42:47.176Z,102930.43
2019-03-21T14:45:51.975Z,102934.05
2019-03-21T14:48:56.793Z,102941.30
2019-03-21T14:52:03.632Z,102937.25
2019-03-21T14:55:08.960Z,102931.58
2019-03-21T14:58:13.822Z,102928.32
2019-03-21T15:01:18.652Z,102940.81
2019-03-21T15:04:23.488Z,102935.70
2019-03-21T15:07:28.503Z,102937.19
2019-03-21T15:10:36.065Z,102938.28
2019-03-21T15:13:40.908Z,102944.25
2019-03-21T15:16:46.021Z,102942.25
2019-03-21T15:19:52.334Z,102951.84
2019-03-21T15:22:57.230Z,102950.10
2019-03-21T15:26:02.223Z,102955.06
2019-03-21T15:29:07.168Z,102951.91
2019-03-21T15:32:12.014Z,102946.66
2019-03-21T15:35:17.474Z,102958.63
2019-03-21T15:38:22.376Z,102964.12
2019-03-21T15:41:31.275Z,102953.98
2019-03-21T15:44:36.128Z,102954.20
2019-03-21T15:47:42.287Z,102961.73
2019-03-21T15:50:47.232Z,102957.08
2019-03-21T15:53:56.361Z,102959.67
2019-03-21T15:56:58.763Z,102960.67
2019-03-21T16:00:03.688Z,102955.52
2019-03-21T16:03:09.187Z,102957.78
2019-03-21T16:06:14.208Z,102957.36
2019-03-21T16:09:22.055Z,102954.70
2019-03-21T16:12:30.152Z,102944.07
2019-03-21T16:15:35.005Z,102948.39
2019-03-21T16:18:41.909Z,102950.88
2019-03-21T16:21:47.765Z,102950.02
2019-03-21T16:24:53.531Z,102956.17
2019-03-21T16:27:59.163Z,102951.67
2019-03-21T16:31:05.003Z,102956.70
2019-03-21T16:34:10.448Z,102950.38
2019-03-21T16:37:19.340Z,102947.38
2019-03-21T16:40:25.134Z,102939.50
2019-03-21T16:43:30.594Z,102932.06
2019-03-21T16:46:36.016Z,102943.59
2019-03-21T16:49:41.147Z,102939.78
2019-03-21T16:52:46.398Z,102954.34
2019-03-21T16:55:51.987Z,102962.13
2019-03-21T16:58:58.852Z,102966.91
2019-03-21T17:02:03.975Z,102973.96
2019-03-21T17:05:09.634Z,102968.23
2019-03-21T17:08:17.951Z,102969.89
2019-03-21T17:11:22.890Z,102973.14
2019-03-21T17:14:27.830Z,102966.03
2019-03-21T17:17:32.828Z,102963.80
2019-03-21T17:20:37.720Z,102967.09
2019-03-21T17:23:42.673Z,102968.34
2019-03-21T17:26:47.542Z,102970.34
2019-03-21T17:29:52.515Z,102972.84
2019-03-21T17:32:59.251Z,102966.89
2019-03-21T17:36:04.139Z,102970.30
2019-03-21T17:39:10.159Z,102978.16
2019-03-21T17:42:16.309Z,102979.02
2019-03-21T17:45:21.354Z,102985.67
2019-03-21T17:48:26.346Z,102983.22
2019-03-21T17:51:31.215Z,102996.02
2019-03-21T17:54:41.545Z,102994.10
2019-03-21T17:57:42.733Z,102999.30
2019-03-21T18:00:51.251Z,102995.28
2019-03-21T18:03:56.725Z,103002.23
2019-03-21T18:07:01.695Z,103004.99
2019-03-21T18:10:08.023Z,103007.84
2019-03-21T18:13:12.980Z,103004.06
2019-03-21T18:16:19.944Z,103011.86
2019-03-21T18:19:24.911Z,103023.44
2019-03-21T18:22:29.956Z,103025.92
2019-03-21T18:25:34.878Z,103018.42
2019-03-21T18:28:41.061Z,103028.62
2019-03-21T18:31:45.902Z,103027.25
2019-03-21T18:34:51.207Z,103030.91
2019-03-21T18:37:56.175Z,103034.35
2019-03-21T18:41:01.215Z,103031.22
2019-03-21T18:44:06.332Z,103049.45
2019-03-21T18:47:12.895Z,103053.35
2019-03-21T18:50:18.126Z,103049.97
2019-03-21T18:53:23.581Z,103055.34
2019-03-21T18:56:28.539Z,103071.97
2019-03-21T18:59:34.845Z,103073.23
2019-03-21T19:02:39.820Z,103079.42
2019-03-21T19:05:46.239Z,103081.14
2019-03-21T19:08:51.108Z,103082.67
2019-03-21T19:11:57.404Z,103086.14
2019-03-21T19:15:10.610Z,103091.34
2019-03-21T19:18:18.862Z,103080.86
2019-03-21T19:21:24.220Z,103076.81
2019-03-21T19:24:29.265Z,103073.64
2019-03-21T19:27:35.405Z,103064.74
2019-03-21T19:30:44.983Z,103073.11
2019-03-21T19:33:51.218Z,103081.88
2019-03-21T19:36:56.388Z,103078.72
2019-03-21T19:40:01.473Z,103081.34
2019-03-21T19:43:06.438Z,103078.72
2019-03-21T19:46:13.631Z,103081.13
2019-03-21T19:49:20.116Z,103083.16
2019-03-21T19:52:27.010Z,103085.41
2019-03-21T19:55:33.806Z,103083.47
2019-03-21T19:58:38.703Z,103087.05
2019-03-21T20:01:43.728Z,103084.48
2019-03-21T20:04:48.775Z,103089.20
2019-03-21T20:07:56.627Z,103088.34
2019-03-21T20:11:01.593Z,103091.91
2019-03-21T20:14:06.808Z,103083.89
2019-03-21T20:17:11.950Z,103078.77
2019-03-21T20:20:17.323Z,103072.27
2019-03-21T20:23:24.606Z,103073.36
2019-03-21T20:26:29.490Z,103074.14
2019-03-21T20:29:34.527Z,103073.47
2019-03-21T20:32:39.642Z,103079.97
2019-03-21T20:35:44.796Z,103076.89
2019-03-21T20:38:49.656Z,103077.00
2019-03-21T20:41:54.688Z,103076.64
2019-03-21T20:44:59.580Z,103063.27
2019-03-21T20:48:07.752Z,103061.56
2019-03-21T20:51:12.707Z,103054.82
2019-03-21T20:54:17.581Z,103062.19
2019-03-21T20:57:22.420Z,103067.72
2019-03-21T21:00:27.617Z,103069.05
2019-03-21T21:03:34.046Z,103078.91
2019-03-21T21:06:38.999Z,103079.14
2019-03-21T21:09:46.680Z,103094.50
2019-03-21T21:12:51.616Z,103085.13
2019-03-21T21:15:56.578Z,103086.07
2019-03-21T21:19:04.209Z,103087.13
2019-03-21T21:22:09.111Z,103098.95
2019-03-21T21:25:14.258Z,103097.83
2019-03-21T21:28:19.199Z,103102.62
2019-03-21T21:31:24.150Z,103112.31
2019-03-21T21:34:29.007Z,103101.00
2019-03-21T21:37:33.863Z,103109.62
2019-03-21T21:40:40.233Z,103097.15
2019-03-21T21:43:45.102Z,103103.64
2019-03-21T21:46:49.899Z,103098.73
2019-03-21T21:49:54.736Z,103100.48
2019-03-21T21:52:59.588Z,103101.64
2019-03-21T21:56:16.869Z,103099.84
2019-03-21T21:59:11.120Z,103094.07
2019-03-21T22:02:17.206Z,103099.03
2019-03-21T22:05:22.086Z,103112.22
2019-03-21T22:08:27.260Z,103109.50
2019-03-21T22:11:32.332Z,103104.34
2019-03-21T22:14:37.426Z,103101.80
2019-03-21T22:17:42.500Z,103098.34
2019-03-21T22:20:47.698Z,103103.61
2019-03-21T22:23:52.809Z,103099.52
2019-03-21T22:26:57.759Z,103096.90
2019-03-21T22:30:04.359Z,103093.35
2019-03-21T22:33:09.522Z,103093.77
2019-03-21T22:36:14.465Z,103093.55
2019-03-21T22:39:19.296Z,103098.19
2019-03-21T22:42:25.607Z,103106.03
2019-03-21T22:45:31.531Z,103091.50
2019-03-21T22:48:36.376Z,103099.55
2019-03-21T22:51:41.200Z,103101.72
2019-03-21T22:54:46.056Z,103103.19
2019-03-21T22:57:50.910Z,103102.08
2019-03-21T23:00:55.696Z,103113.17
2019-03-21T23:04:02.734Z,103116.84
2019-03-21T23:07:06.986Z,103125.73
2019-03-21T23:10:12.411Z,103134.45
2019-03-21T23:13:17.155Z,103121.93
2019-03-21T23:16:22.123Z,103125.03
2019-03-21T23:19:28.060Z,103127.34
2019-03-21T23:22:34.129Z,103123.21
2019-03-21T23:25:39.113Z,103116.77
2019-03-21T23:28:43.905Z,103107.00
2019-03-21T23:31:48.779Z,103097.92
2019-03-21T23:34:53.593Z,103096.30
2019-03-21T23:37:58.409Z,103095.91
2019-03-21T23:41:03.337Z,103095.28
2019-03-21T23:44:08.167Z,103087.64
2019-03-21T23:47:15.727Z,103086.20
2019-03-21T23:50:20.536Z,103080.43
2019-03-21T23:53:25.372Z,103088.46
2019-03-21T23:56:30.523Z,103086.75
2019-03-21T23:59:35.334Z,103084.73
